Terminal Aerodrome Forecast
Issued by NWS Atlanta, GA

Home | Current Version | Previous Version | Text Only | Print | Product List | Glossary On
Versions: 1 2 3 4 5 6 7 8 9 10 11 12 13 14 15 16 17 18 19
000
FTUS42 KFFC 281739
TAFCSG
TAF
KCSG 281739Z 2818/0118 09012KT P6SM SCT050 BKN100
     FM282200 09008KT P6SM OVC035
     FM010100 06008KT 4SM -RA BKN015
     FM010600 06008KT 3SM -RA OVC008
     FM011000 05008KT 2SM -RADZ OVC004
     FM011600 04008KT 4SM -RADZ OVC006=

USA.gov is the U.S. government's official web portal to all federal, state and local government web resources and services.